sensor_id;sensor_type;location;lat;lon;timestamp;P1;durP1;ratioP1;P2;durP2;ratioP2
14187;SDS011;7175;51.978;5.330;2024-01-16T00:01:42;95.27;;;88.77;;
14187;SDS011;7175;51.978;5.330;2024-01-16T00:04:10;94.13;;;87.63;;
14187;SDS011;7175;51.978;5.330;2024-01-16T00:06:39;93.37;;;86.97;;
14187;SDS011;7175;51.978;5.330;2024-01-16T00:09:11;93.10;;;86.60;;
14187;SDS011;7175;51.978;5.330;2024-01-16T00:11:39;93.17;;;86.77;;
14187;SDS011;7175;51.978;5.330;2024-01-16T00:14:08;94.17;;;87.77;;
14187;SDS011;7175;51.978;5.330;2024-01-16T00:16:42;97.00;;;90.50;;
14187;SDS011;7175;51.978;5.330;2024-01-16T00:19:10;93.87;;;87.47;;
14187;SDS011;7175;51.978;5.330;2024-01-16T00:21:39;93.73;;;87.43;;
14187;SDS011;7175;51.978;5.330;2024-01-16T00:24:07;96.10;;;89.70;;
14187;SDS011;7175;51.978;5.330;2024-01-16T00:26:35;95.40;;;89.00;;
14187;SDS011;7175;51.978;5.330;2024-01-16T00:29:03;92.10;;;85.80;;
14187;SDS011;7175;51.978;5.330;2024-01-16T00:31:32;90.63;;;84.43;;
14187;SDS011;7175;51.978;5.330;2024-01-16T00:34:01;94.37;;;88.07;;
14187;SDS011;7175;51.978;5.330;2024-01-16T00:36:29;95.27;;;88.87;;
14187;SDS011;7175;51.978;5.330;2024-01-16T00:38:57;93.47;;;87.17;;
14187;SDS011;7175;51.978;5.330;2024-01-16T00:41:25;93.50;;;87.20;;
14187;SDS011;7175;51.978;5.330;2024-01-16T00:43:54;93.20;;;86.90;;
14187;SDS011;7175;51.978;5.330;2024-01-16T00:46:22;93.27;;;86.97;;
14187;SDS011;7175;51.978;5.330;2024-01-16T00:48:50;89.87;;;83.67;;
14187;SDS011;7175;51.978;5.330;2024-01-16T00:51:19;93.00;;;86.70;;
14187;SDS011;7175;51.978;5.330;2024-01-16T00:53:47;93.53;;;87.17;;
14187;SDS011;7175;51.978;5.330;2024-01-16T00:56:15;95.83;;;89.40;;
14187;SDS011;7175;51.978;5.330;2024-01-16T00:58:43;92.37;;;86.03;;
14187;SDS011;7175;51.978;5.330;2024-01-16T01:01:11;95.20;;;88.73;;
14187;SDS011;7175;51.978;5.330;2024-01-16T01:03:39;96.83;;;90.33;;
14187;SDS011;7175;51.978;5.330;2024-01-16T01:06:07;91.70;;;85.40;;
14187;SDS011;7175;51.978;5.330;2024-01-16T01:08:36;98.23;;;91.60;;
14187;SDS011;7175;51.978;5.330;2024-01-16T01:11:04;95.73;;;89.13;;
14187;SDS011;7175;51.978;5.330;2024-01-16T01:13:32;95.13;;;88.60;;
14187;SDS011;7175;51.978;5.330;2024-01-16T01:16:00;95.60;;;89.00;;
14187;SDS011;7175;51.978;5.330;2024-01-16T01:18:28;98.60;;;91.90;;
14187;SDS011;7175;51.978;5.330;2024-01-16T01:20:57;97.13;;;90.43;;
14187;SDS011;7175;51.978;5.330;2024-01-16T01:23:24;95.53;;;88.93;;
14187;SDS011;7175;51.978;5.330;2024-01-16T01:25:54;98.10;;;91.40;;
14187;SDS011;7175;51.978;5.330;2024-01-16T01:28:22;98.30;;;91.50;;
14187;SDS011;7175;51.978;5.330;2024-01-16T01:30:50;98.20;;;91.50;;
14187;SDS011;7175;51.978;5.330;2024-01-16T01:33:18;96.50;;;89.93;;
14187;SDS011;7175;51.978;5.330;2024-01-16T01:35:46;95.23;;;88.73;;
14187;SDS011;7175;51.978;5.330;2024-01-16T01:38:14;98.50;;;91.90;;
14187;SDS011;7175;51.978;5.330;2024-01-16T01:40:42;95.17;;;88.67;;
14187;SDS011;7175;51.978;5.330;2024-01-16T01:43:20;98.70;;;92.10;;
14187;SDS011;7175;51.978;5.330;2024-01-16T01:45:56;97.17;;;90.57;;
14187;SDS011;7175;51.978;5.330;2024-01-16T01:48:32;100.73;;;94.03;;
14187;SDS011;7175;51.978;5.330;2024-01-16T01:51:00;99.33;;;92.73;;
14187;SDS011;7175;51.978;5.330;2024-01-16T01:53:29;99.30;;;92.70;;
14187;SDS011;7175;51.978;5.330;2024-01-16T01:56:00;94.87;;;88.47;;
14187;SDS011;7175;51.978;5.330;2024-01-16T01:58:32;95.43;;;89.03;;
14187;SDS011;7175;51.978;5.330;2024-01-16T02:01:01;92.27;;;85.97;;
14187;SDS011;7175;51.978;5.330;2024-01-16T02:03:31;95.23;;;88.83;;
14187;SDS011;7175;51.978;5.330;2024-01-16T02:06:03;95.03;;;88.63;;
14187;SDS011;7175;51.978;5.330;2024-01-16T02:08:31;96.00;;;89.60;;
14187;SDS011;7175;51.978;5.330;2024-01-16T02:11:00;94.73;;;88.37;;
14187;SDS011;7175;51.978;5.330;2024-01-16T02:13:28;93.70;;;87.40;;
14187;SDS011;7175;51.978;5.330;2024-01-16T02:15:57;91.10;;;84.90;;
14187;SDS011;7175;51.978;5.330;2024-01-16T02:18:25;91.73;;;85.53;;
14187;SDS011;7175;51.978;5.330;2024-01-16T02:20:54;93.07;;;86.77;;
14187;SDS011;7175;51.978;5.330;2024-01-16T02:23:28;91.40;;;85.10;;
14187;SDS011;7175;51.978;5.330;2024-01-16T02:25:56;89.70;;;83.47;;
14187;SDS011;7175;51.978;5.330;2024-01-16T02:28:24;93.83;;;87.43;;
14187;SDS011;7175;51.978;5.330;2024-01-16T02:30:52;90.83;;;84.43;;
14187;SDS011;7175;51.978;5.330;2024-01-16T02:33:20;92.17;;;85.77;;
14187;SDS011;7175;51.978;5.330;2024-01-16T02:35:48;93.80;;;87.30;;
14187;SDS011;7175;51.978;5.330;2024-01-16T02:38:16;98.73;;;92.00;;
14187;SDS011;7175;51.978;5.330;2024-01-16T02:40:46;95.77;;;89.17;;
14187;SDS011;7175;51.978;5.330;2024-01-16T02:43:14;100.03;;;93.23;;
14187;SDS011;7175;51.978;5.330;2024-01-16T02:45:42;100.53;;;93.70;;
14187;SDS011;7175;51.978;5.330;2024-01-16T02:48:10;100.37;;;93.50;;
14187;SDS011;7175;51.978;5.330;2024-01-16T02:50:38;100.43;;;93.43;;
14187;SDS011;7175;51.978;5.330;2024-01-16T02:53:06;100.87;;;93.87;;
14187;SDS011;7175;51.978;5.330;2024-01-16T02:55:35;100.80;;;93.80;;
14187;SDS011;7175;51.978;5.330;2024-01-16T02:58:04;104.07;;;97.00;;
14187;SDS011;7175;51.978;5.330;2024-01-16T03:00:32;102.50;;;95.40;;
14187;SDS011;7175;51.978;5.330;2024-01-16T03:03:00;102.20;;;95.20;;
14187;SDS011;7175;51.978;5.330;2024-01-16T03:05:28;98.20;;;91.40;;
14187;SDS011;7175;51.978;5.330;2024-01-16T03:07:56;97.50;;;90.80;;
14187;SDS011;7175;51.978;5.330;2024-01-16T03:10:24;100.37;;;93.57;;
14187;SDS011;7175;51.978;5.330;2024-01-16T03:12:52;101.37;;;94.47;;
14187;SDS011;7175;51.978;5.330;2024-01-16T03:15:21;98.63;;;91.83;;
14187;SDS011;7175;51.978;5.330;2024-01-16T03:17:49;102.27;;;95.27;;
14187;SDS011;7175;51.978;5.330;2024-01-16T03:20:17;101.40;;;94.40;;
14187;SDS011;7175;51.978;5.330;2024-01-16T03:22:45;99.83;;;92.87;;
14187;SDS011;7175;51.978;5.330;2024-01-16T03:25:14;98.03;;;91.23;;
14187;SDS011;7175;51.978;5.330;2024-01-16T03:27:43;97.17;;;90.27;;
14187;SDS011;7175;51.978;5.330;2024-01-16T03:30:11;96.93;;;90.13;;
14187;SDS011;7175;51.978;5.330;2024-01-16T03:32:41;99.43;;;92.53;;
14187;SDS011;7175;51.978;5.330;2024-01-16T03:35:09;97.93;;;91.17;;
14187;SDS011;7175;51.978;5.330;2024-01-16T03:37:37;97.37;;;90.57;;
14187;SDS011;7175;51.978;5.330;2024-01-16T03:40:06;96.67;;;89.97;;
14187;SDS011;7175;51.978;5.330;2024-01-16T03:42:34;95.43;;;88.73;;
14187;SDS011;7175;51.978;5.330;2024-01-16T03:45:03;93.73;;;87.23;;
14187;SDS011;7175;51.978;5.330;2024-01-16T03:47:31;92.50;;;86.00;;
14187;SDS011;7175;51.978;5.330;2024-01-16T03:50:01;93.50;;;87.00;;
14187;SDS011;7175;51.978;5.330;2024-01-16T03:52:29;94.57;;;88.07;;
14187;SDS011;7175;51.978;5.330;2024-01-16T03:54:57;90.97;;;84.63;;
14187;SDS011;7175;51.978;5.330;2024-01-16T03:57:25;91.97;;;85.57;;
14187;SDS011;7175;51.978;5.330;2024-01-16T03:59:53;90.00;;;83.73;;
14187;SDS011;7175;51.978;5.330;2024-01-16T04:02:21;87.87;;;81.77;;
14187;SDS011;7175;51.978;5.330;2024-01-16T04:04:49;94.57;;;88.07;;
14187;SDS011;7175;51.978;5.330;2024-01-16T04:07:18;95.03;;;88.60;;
14187;SDS011;7175;51.978;5.330;2024-01-16T04:09:46;96.37;;;89.77;;
14187;SDS011;7175;51.978;5.330;2024-01-16T04:12:14;94.17;;;87.67;;
14187;SDS011;7175;51.978;5.330;2024-01-16T04:14:42;93.97;;;87.50;;
14187;SDS011;7175;51.978;5.330;2024-01-16T04:17:10;93.80;;;87.30;;
14187;SDS011;7175;51.978;5.330;2024-01-16T04:19:38;92.67;;;86.27;;
14187;SDS011;7175;51.978;5.330;2024-01-16T04:22:07;89.83;;;83.53;;
14187;SDS011;7175;51.978;5.330;2024-01-16T04:24:36;88.63;;;82.33;;
14187;SDS011;7175;51.978;5.330;2024-01-16T04:27:04;90.07;;;83.70;;
14187;SDS011;7175;51.978;5.330;2024-01-16T04:29:32;90.40;;;84.10;;
14187;SDS011;7175;51.978;5.330;2024-01-16T04:32:00;89.00;;;82.63;;
14187;SDS011;7175;51.978;5.330;2024-01-16T04:34:29;91.27;;;84.77;;
14187;SDS011;7175;51.978;5.330;2024-01-16T04:36:57;90.70;;;84.30;;
14187;SDS011;7175;51.978;5.330;2024-01-16T04:39:25;88.47;;;82.10;;
14187;SDS011;7175;51.978;5.330;2024-01-16T04:41:54;89.53;;;83.13;;
14187;SDS011;7175;51.978;5.330;2024-01-16T04:44:22;90.47;;;84.00;;
14187;SDS011;7175;51.978;5.330;2024-01-16T04:46:50;90.07;;;83.57;;
14187;SDS011;7175;51.978;5.330;2024-01-16T04:49:19;93.83;;;87.23;;
14187;SDS011;7175;51.978;5.330;2024-01-16T04:51:47;89.73;;;83.33;;
14187;SDS011;7175;51.978;5.330;2024-01-16T04:54:15;90.43;;;83.83;;
14187;SDS011;7175;51.978;5.330;2024-01-16T04:56:43;86.73;;;80.23;;
14187;SDS011;7175;51.978;5.330;2024-01-16T04:59:13;89.13;;;82.57;;
14187;SDS011;7175;51.978;5.330;2024-01-16T05:01:42;89.90;;;83.30;;
14187;SDS011;7175;51.978;5.330;2024-01-16T05:04:10;90.20;;;83.60;;
14187;SDS011;7175;51.978;5.330;2024-01-16T05:06:38;87.30;;;80.70;;
14187;SDS011;7175;51.978;5.330;2024-01-16T05:09:06;86.17;;;79.67;;
14187;SDS011;7175;51.978;5.330;2024-01-16T05:11:35;85.30;;;78.90;;
14187;SDS011;7175;51.978;5.330;2024-01-16T05:14:03;91.57;;;84.87;;
14187;SDS011;7175;51.978;5.330;2024-01-16T05:16:32;91.00;;;84.30;;
14187;SDS011;7175;51.978;5.330;2024-01-16T05:19:00;88.67;;;82.17;;
14187;SDS011;7175;51.978;5.330;2024-01-16T05:21:29;85.37;;;78.97;;
14187;SDS011;7175;51.978;5.330;2024-01-16T05:23:57;81.90;;;75.70;;
14187;SDS011;7175;51.978;5.330;2024-01-16T05:26:25;81.83;;;75.50;;
14187;SDS011;7175;51.978;5.330;2024-01-16T05:28:52;84.77;;;78.37;;
14187;SDS011;7175;51.978;5.330;2024-01-16T05:31:20;85.67;;;79.17;;
14187;SDS011;7175;51.978;5.330;2024-01-16T05:33:50;86.37;;;79.87;;
14187;SDS011;7175;51.978;5.330;2024-01-16T05:36:18;85.90;;;79.40;;
14187;SDS011;7175;51.978;5.330;2024-01-16T05:38:46;89.00;;;82.40;;
14187;SDS011;7175;51.978;5.330;2024-01-16T05:41:14;85.80;;;79.30;;
14187;SDS011;7175;51.978;5.330;2024-01-16T05:43:42;89.63;;;83.00;;
14187;SDS011;7175;51.978;5.330;2024-01-16T05:46:10;91.40;;;84.60;;
14187;SDS011;7175;51.978;5.330;2024-01-16T05:48:38;88.90;;;82.30;;
14187;SDS011;7175;51.978;5.330;2024-01-16T05:51:07;91.43;;;84.60;;
14187;SDS011;7175;51.978;5.330;2024-01-16T05:53:35;90.80;;;83.97;;
14187;SDS011;7175;51.978;5.330;2024-01-16T05:56:05;90.40;;;83.50;;
14187;SDS011;7175;51.978;5.330;2024-01-16T05:58:34;95.03;;;87.80;;
14187;SDS011;7175;51.978;5.330;2024-01-16T06:01:05;94.30;;;87.20;;
14187;SDS011;7175;51.978;5.330;2024-01-16T06:03:33;94.83;;;87.63;;
14187;SDS011;7175;51.978;5.330;2024-01-16T06:06:01;91.90;;;84.80;;
14187;SDS011;7175;51.978;5.330;2024-01-16T06:08:31;97.00;;;89.40;;
14187;SDS011;7175;51.978;5.330;2024-01-16T06:10:59;95.53;;;88.03;;
14187;SDS011;7175;51.978;5.330;2024-01-16T06:13:27;93.00;;;85.60;;
14187;SDS011;7175;51.978;5.330;2024-01-16T06:15:57;87.23;;;80.00;;
14187;SDS011;7175;51.978;5.330;2024-01-16T06:18:25;85.40;;;78.40;;
14187;SDS011;7175;51.978;5.330;2024-01-16T06:20:54;86.83;;;79.83;;
14187;SDS011;7175;51.978;5.330;2024-01-16T06:23:22;86.67;;;79.77;;
14187;SDS011;7175;51.978;5.330;2024-01-16T06:25:51;85.93;;;79.00;;
14187;SDS011;7175;51.978;5.330;2024-01-16T06:28:19;86.33;;;79.33;;
14187;SDS011;7175;51.978;5.330;2024-01-16T06:30:47;89.70;;;82.50;;
14187;SDS011;7175;51.978;5.330;2024-01-16T06:33:15;87.77;;;80.67;;
14187;SDS011;7175;51.978;5.330;2024-01-16T06:35:43;88.67;;;81.67;;
14187;SDS011;7175;51.978;5.330;2024-01-16T06:38:11;86.50;;;79.50;;
14187;SDS011;7175;51.978;5.330;2024-01-16T06:40:39;86.13;;;79.13;;
14187;SDS011;7175;51.978;5.330;2024-01-16T06:43:09;92.20;;;85.00;;
14187;SDS011;7175;51.978;5.330;2024-01-16T06:45:37;85.97;;;79.07;;
14187;SDS011;7175;51.978;5.330;2024-01-16T06:48:05;94.70;;;87.20;;
14187;SDS011;7175;51.978;5.330;2024-01-16T06:50:33;95.13;;;87.57;;
14187;SDS011;7175;51.978;5.330;2024-01-16T06:53:01;89.33;;;82.30;;
14187;SDS011;7175;51.978;5.330;2024-01-16T06:55:30;89.57;;;82.50;;
14187;SDS011;7175;51.978;5.330;2024-01-16T06:57:58;91.27;;;84.17;;
14187;SDS011;7175;51.978;5.330;2024-01-16T07:00:27;90.30;;;83.20;;
14187;SDS011;7175;51.978;5.330;2024-01-16T07:02:56;87.10;;;80.20;;
14187;SDS011;7175;51.978;5.330;2024-01-16T07:05:24;85.50;;;78.70;;
14187;SDS011;7175;51.978;5.330;2024-01-16T07:07:52;86.43;;;79.53;;
14187;SDS011;7175;51.978;5.330;2024-01-16T07:10:20;88.83;;;81.73;;
14187;SDS011;7175;51.978;5.330;2024-01-16T07:12:50;84.90;;;78.10;;
14187;SDS011;7175;51.978;5.330;2024-01-16T07:15:18;82.77;;;76.07;;
14187;SDS011;7175;51.978;5.330;2024-01-16T07:17:47;86.00;;;79.23;;
14187;SDS011;7175;51.978;5.330;2024-01-16T07:20:16;103.18;;;94.68;;
14187;SDS011;7175;51.978;5.330;2024-01-16T07:22:44;96.80;;;88.70;;
14187;SDS011;7175;51.978;5.330;2024-01-16T07:25:11;97.43;;;89.53;;
14187;SDS011;7175;51.978;5.330;2024-01-16T07:27:39;92.87;;;85.27;;
14187;SDS011;7175;51.978;5.330;2024-01-16T07:30:09;91.50;;;84.10;;
14187;SDS011;7175;51.978;5.330;2024-01-16T07:32:37;91.00;;;83.80;;
14187;SDS011;7175;51.978;5.330;2024-01-16T07:35:07;93.00;;;85.77;;
14187;SDS011;7175;51.978;5.330;2024-01-16T07:37:35;87.33;;;80.37;;
14187;SDS011;7175;51.978;5.330;2024-01-16T07:40:03;88.20;;;81.30;;
14187;SDS011;7175;51.978;5.330;2024-01-16T07:42:33;82.40;;;75.80;;
14187;SDS011;7175;51.978;5.330;2024-01-16T07:45:01;79.43;;;73.03;;
14187;SDS011;7175;51.978;5.330;2024-01-16T07:47:30;75.90;;;69.70;;
14187;SDS011;7175;51.978;5.330;2024-01-16T07:49:59;75.30;;;69.00;;
14187;SDS011;7175;51.978;5.330;2024-01-16T07:52:32;70.70;;;64.60;;
14187;SDS011;7175;51.978;5.330;2024-01-16T07:55:00;74.80;;;68.50;;
14187;SDS011;7175;51.978;5.330;2024-01-16T07:57:29;75.40;;;69.20;;
14187;SDS011;7175;51.978;5.330;2024-01-16T07:59:57;74.97;;;68.77;;
14187;SDS011;7175;51.978;5.330;2024-01-16T08:02:26;100.87;;;93.67;;
14187;SDS011;7175;51.978;5.330;2024-01-16T08:04:59;89.97;;;83.37;;
14187;SDS011;7175;51.978;5.330;2024-01-16T08:07:28;100.07;;;93.17;;
14187;SDS011;7175;51.978;5.330;2024-01-16T08:09:58;84.97;;;78.57;;
14187;SDS011;7175;51.978;5.330;2024-01-16T08:12:26;83.63;;;77.33;;
14187;SDS011;7175;51.978;5.330;2024-01-16T08:14:53;86.77;;;80.37;;
14187;SDS011;7175;51.978;5.330;2024-01-16T08:17:22;83.77;;;77.50;;
14187;SDS011;7175;51.978;5.330;2024-01-16T08:19:50;76.73;;;70.73;;
14187;SDS011;7175;51.978;5.330;2024-01-16T08:22:18;73.80;;;68.00;;
14187;SDS011;7175;51.978;5.330;2024-01-16T08:24:46;77.00;;;71.10;;
14187;SDS011;7175;51.978;5.330;2024-01-16T08:27:15;72.27;;;66.47;;
14187;SDS011;7175;51.978;5.330;2024-01-16T08:29:43;75.10;;;69.30;;
14187;SDS011;7175;51.978;5.330;2024-01-16T08:32:11;74.00;;;68.20;;
14187;SDS011;7175;51.978;5.330;2024-01-16T08:34:39;75.13;;;69.33;;
14187;SDS011;7175;51.978;5.330;2024-01-16T08:37:07;70.37;;;64.77;;
14187;SDS011;7175;51.978;5.330;2024-01-16T08:39:35;69.80;;;64.30;;
14187;SDS011;7175;51.978;5.330;2024-01-16T08:42:03;70.70;;;65.20;;
14187;SDS011;7175;51.978;5.330;2024-01-16T08:44:33;65.53;;;60.23;;
14187;SDS011;7175;51.978;5.330;2024-01-16T08:47:01;65.23;;;59.93;;
14187;SDS011;7175;51.978;5.330;2024-01-16T08:49:31;63.70;;;58.50;;
14187;SDS011;7175;51.978;5.330;2024-01-16T08:51:59;65.97;;;60.73;;
14187;SDS011;7175;51.978;5.330;2024-01-16T08:54:27;65.60;;;60.30;;
14187;SDS011;7175;51.978;5.330;2024-01-16T08:56:55;65.00;;;59.80;;
14187;SDS011;7175;51.978;5.330;2024-01-16T08:59:23;66.47;;;61.17;;
14187;SDS011;7175;51.978;5.330;2024-01-16T09:01:52;60.60;;;55.70;;
14187;SDS011;7175;51.978;5.330;2024-01-16T09:04:20;60.13;;;55.23;;
14187;SDS011;7175;51.978;5.330;2024-01-16T09:06:49;59.07;;;54.27;;
14187;SDS011;7175;51.978;5.330;2024-01-16T09:09:18;59.97;;;55.17;;
14187;SDS011;7175;51.978;5.330;2024-01-16T09:11:47;61.53;;;56.63;;
14187;SDS011;7175;51.978;5.330;2024-01-16T09:14:15;61.93;;;56.97;;
14187;SDS011;7175;51.978;5.330;2024-01-16T09:16:43;60.07;;;55.17;;
14187;SDS011;7175;51.978;5.330;2024-01-16T09:19:13;62.17;;;57.27;;
14187;SDS011;7175;51.978;5.330;2024-01-16T09:21:41;62.10;;;57.10;;
14187;SDS011;7175;51.978;5.330;2024-01-16T09:24:09;64.93;;;59.77;;
14187;SDS011;7175;51.978;5.330;2024-01-16T09:26:39;63.57;;;58.47;;
14187;SDS011;7175;51.978;5.330;2024-01-16T09:29:08;60.70;;;55.80;;
14187;SDS011;7175;51.978;5.330;2024-01-16T09:31:37;62.10;;;57.10;;
14187;SDS011;7175;51.978;5.330;2024-01-16T09:34:05;60.47;;;55.67;;
14187;SDS011;7175;51.978;5.330;2024-01-16T09:36:36;56.97;;;52.30;;
14187;SDS011;7175;51.978;5.330;2024-01-16T09:39:05;57.60;;;52.90;;
14187;SDS011;7175;51.978;5.330;2024-01-16T09:41:34;55.67;;;51.13;;
14187;SDS011;7175;51.978;5.330;2024-01-16T09:44:03;56.47;;;51.87;;
14187;SDS011;7175;51.978;5.330;2024-01-16T09:46:31;57.00;;;52.40;;
14187;SDS011;7175;51.978;5.330;2024-01-16T09:48:59;58.30;;;53.60;;
14187;SDS011;7175;51.978;5.330;2024-01-16T09:51:28;59.60;;;54.90;;
14187;SDS011;7175;51.978;5.330;2024-01-16T09:53:57;58.27;;;53.57;;
14187;SDS011;7175;51.978;5.330;2024-01-16T09:56:26;54.93;;;50.53;;
14187;SDS011;7175;51.978;5.330;2024-01-16T09:58:57;57.73;;;53.13;;
14187;SDS011;7175;51.978;5.330;2024-01-16T10:01:30;57.07;;;52.47;;
14187;SDS011;7175;51.978;5.330;2024-01-16T10:04:00;58.23;;;53.60;;
14187;SDS011;7175;51.978;5.330;2024-01-16T10:06:28;58.03;;;53.33;;
14187;SDS011;7175;51.978;5.330;2024-01-16T10:09:00;56.50;;;51.97;;
14187;SDS011;7175;51.978;5.330;2024-01-16T10:11:28;57.03;;;52.43;;
14187;SDS011;7175;51.978;5.330;2024-01-16T10:13:57;58.10;;;53.50;;
14187;SDS011;7175;51.978;5.330;2024-01-16T10:16:35;58.00;;;53.40;;
14187;SDS011;7175;51.978;5.330;2024-01-16T10:19:24;59.57;;;54.90;;
14187;SDS011;7175;51.978;5.330;2024-01-16T10:22:07;59.53;;;54.83;;
14187;SDS011;7175;51.978;5.330;2024-01-16T10:24:37;54.60;;;50.30;;
14187;SDS011;7175;51.978;5.330;2024-01-16T10:27:07;52.17;;;47.97;;
14187;SDS011;7175;51.978;5.330;2024-01-16T10:29:35;51.87;;;47.67;;
14187;SDS011;7175;51.978;5.330;2024-01-16T10:32:20;53.67;;;49.37;;
14187;SDS011;7175;51.978;5.330;2024-01-16T10:35:01;52.33;;;48.13;;
14187;SDS011;7175;51.978;5.330;2024-01-16T10:37:31;52.70;;;48.50;;
14187;SDS011;7175;51.978;5.330;2024-01-16T10:40:09;55.33;;;51.03;;
14187;SDS011;7175;51.978;5.330;2024-01-16T10:42:37;55.00;;;50.70;;
14187;SDS011;7175;51.978;5.330;2024-01-16T10:45:06;57.83;;;53.40;;
14187;SDS011;7175;51.978;5.330;2024-01-16T10:47:34;56.47;;;52.17;;
14187;SDS011;7175;51.978;5.330;2024-01-16T10:50:04;58.60;;;54.10;;
14187;SDS011;7175;51.978;5.330;2024-01-16T10:52:35;59.67;;;55.10;;
14187;SDS011;7175;51.978;5.330;2024-01-16T10:55:13;60.03;;;55.43;;
14187;SDS011;7175;51.978;5.330;2024-01-16T10:57:46;59.60;;;55.10;;
14187;SDS011;7175;51.978;5.330;2024-01-16T11:00:17;62.17;;;57.57;;
14187;SDS011;7175;51.978;5.330;2024-01-16T11:02:49;61.40;;;56.77;;
14187;SDS011;7175;51.978;5.330;2024-01-16T11:05:19;59.00;;;54.60;;
14187;SDS011;7175;51.978;5.330;2024-01-16T11:07:53;59.07;;;54.67;;
14187;SDS011;7175;51.978;5.330;2024-01-16T11:10:23;57.87;;;53.60;;
14187;SDS011;7175;51.978;5.330;2024-01-16T11:12:53;57.00;;;52.80;;
14187;SDS011;7175;51.978;5.330;2024-01-16T11:15:22;56.27;;;52.17;;
14187;SDS011;7175;51.978;5.330;2024-01-16T11:17:52;52.03;;;48.13;;
14187;SDS011;7175;51.978;5.330;2024-01-16T11:20:21;53.17;;;49.17;;
14187;SDS011;7175;51.978;5.330;2024-01-16T11:23:10;53.00;;;49.00;;
14187;SDS011;7175;51.978;5.330;2024-01-16T11:25:40;50.23;;;46.43;;
14187;SDS011;7175;51.978;5.330;2024-01-16T11:28:08;49.90;;;46.10;;
14187;SDS011;7175;51.978;5.330;2024-01-16T11:30:37;45.70;;;42.20;;
14187;SDS011;7175;51.978;5.330;2024-01-16T11:33:05;45.80;;;42.40;;
14187;SDS011;7175;51.978;5.330;2024-01-16T11:35:53;45.70;;;42.30;;
14187;SDS011;7175;51.978;5.330;2024-01-16T11:38:22;45.73;;;42.33;;
14187;SDS011;7175;51.978;5.330;2024-01-16T11:40:54;46.13;;;42.63;;
14187;SDS011;7175;51.978;5.330;2024-01-16T11:43:35;45.13;;;41.73;;
14187;SDS011;7175;51.978;5.330;2024-01-16T11:46:04;46.53;;;43.03;;
14187;SDS011;7175;51.978;5.330;2024-01-16T11:48:33;45.03;;;41.63;;
14187;SDS011;7175;51.978;5.330;2024-01-16T11:51:21;45.50;;;42.10;;
14187;SDS011;7175;51.978;5.330;2024-01-16T11:53:51;43.63;;;40.33;;
14187;SDS011;7175;51.978;5.330;2024-01-16T11:56:33;43.80;;;40.50;;
14187;SDS011;7175;51.978;5.330;2024-01-16T11:59:17;43.40;;;40.10;;
14187;SDS011;7175;51.978;5.330;2024-01-16T12:02:09;41.70;;;38.50;;
14187;SDS011;7175;51.978;5.330;2024-01-16T12:04:41;40.73;;;37.63;;
14187;SDS011;7175;51.978;5.330;2024-01-16T12:07:09;42.40;;;39.20;;
14187;SDS011;7175;51.978;5.330;2024-01-16T12:09:38;43.20;;;40.00;;
14187;SDS011;7175;51.978;5.330;2024-01-16T12:12:07;43.20;;;40.00;;
14187;SDS011;7175;51.978;5.330;2024-01-16T12:14:35;41.20;;;38.10;;
14187;SDS011;7175;51.978;5.330;2024-01-16T12:17:10;41.47;;;38.37;;
14187;SDS011;7175;51.978;5.330;2024-01-16T12:19:38;40.63;;;37.63;;
14187;SDS011;7175;51.978;5.330;2024-01-16T12:22:09;40.03;;;37.03;;
14187;SDS011;7175;51.978;5.330;2024-01-16T12:24:40;38.67;;;35.77;;
14187;SDS011;7175;51.978;5.330;2024-01-16T12:27:10;38.87;;;35.97;;
14187;SDS011;7175;51.978;5.330;2024-01-16T12:29:38;37.23;;;34.43;;
14187;SDS011;7175;51.978;5.330;2024-01-16T12:32:08;37.00;;;34.20;;
14187;SDS011;7175;51.978;5.330;2024-01-16T12:34:43;36.60;;;33.80;;
14187;SDS011;7175;51.978;5.330;2024-01-16T12:37:13;36.30;;;33.60;;
14187;SDS011;7175;51.978;5.330;2024-01-16T12:39:41;34.90;;;32.30;;
14187;SDS011;7175;51.978;5.330;2024-01-16T12:42:11;35.67;;;32.97;;
14187;SDS011;7175;51.978;5.330;2024-01-16T12:44:40;36.60;;;33.80;;
14187;SDS011;7175;51.978;5.330;2024-01-16T12:47:08;34.80;;;32.10;;
14187;SDS011;7175;51.978;5.330;2024-01-16T12:49:40;34.80;;;32.10;;
14187;SDS011;7175;51.978;5.330;2024-01-16T12:52:16;35.13;;;32.53;;
14187;SDS011;7175;51.978;5.330;2024-01-16T12:54:49;34.97;;;32.37;;
14187;SDS011;7175;51.978;5.330;2024-01-16T12:57:28;36.80;;;33.97;;
14187;SDS011;7175;51.978;5.330;2024-01-16T12:59:56;34.67;;;32.07;;
14187;SDS011;7175;51.978;5.330;2024-01-16T13:02:27;32.77;;;30.27;;
14187;SDS011;7175;51.978;5.330;2024-01-16T13:04:57;32.80;;;30.30;;
14187;SDS011;7175;51.978;5.330;2024-01-16T13:07:26;33.07;;;30.57;;
14187;SDS011;7175;51.978;5.330;2024-01-16T13:10:09;33.00;;;30.50;;
14187;SDS011;7175;51.978;5.330;2024-01-16T13:12:43;33.47;;;30.97;;
14187;SDS011;7175;51.978;5.330;2024-01-16T13:15:11;32.67;;;30.17;;
14187;SDS011;7175;51.978;5.330;2024-01-16T13:17:43;32.63;;;30.13;;
14187;SDS011;7175;51.978;5.330;2024-01-16T13:20:11;32.37;;;29.87;;
14187;SDS011;7175;51.978;5.330;2024-01-16T13:22:41;31.87;;;29.37;;
14187;SDS011;7175;51.978;5.330;2024-01-16T13:25:13;32.40;;;29.90;;
14187;SDS011;7175;51.978;5.330;2024-01-16T13:27:43;32.10;;;29.60;;
14187;SDS011;7175;51.978;5.330;2024-01-16T13:30:12;32.30;;;29.80;;
14187;SDS011;7175;51.978;5.330;2024-01-16T13:32:42;31.77;;;29.37;;
14187;SDS011;7175;51.978;5.330;2024-01-16T13:35:10;31.63;;;29.23;;
14187;SDS011;7175;51.978;5.330;2024-01-16T13:37:38;31.60;;;29.20;;
14187;SDS011;7175;51.978;5.330;2024-01-16T13:40:07;31.50;;;29.10;;
14187;SDS011;7175;51.978;5.330;2024-01-16T13:42:38;31.70;;;29.30;;
14187;SDS011;7175;51.978;5.330;2024-01-16T13:45:08;31.43;;;29.03;;
14187;SDS011;7175;51.978;5.330;2024-01-16T13:47:36;31.07;;;28.67;;
14187;SDS011;7175;51.978;5.330;2024-01-16T13:50:07;30.67;;;28.37;;
14187;SDS011;7175;51.978;5.330;2024-01-16T13:52:36;30.07;;;27.77;;
14187;SDS011;7175;51.978;5.330;2024-01-16T13:55:04;30.60;;;28.30;;
14187;SDS011;7175;51.978;5.330;2024-01-16T13:57:32;29.93;;;27.63;;
14187;SDS011;7175;51.978;5.330;2024-01-16T14:00:02;29.67;;;27.47;;
14187;SDS011;7175;51.978;5.330;2024-01-16T14:02:32;29.30;;;27.10;;
14187;SDS011;7175;51.978;5.330;2024-01-16T14:05:03;29.47;;;27.17;;
14187;SDS011;7175;51.978;5.330;2024-01-16T14:07:32;29.67;;;27.40;;
14187;SDS011;7175;51.978;5.330;2024-01-16T14:10:00;29.30;;;27.10;;
14187;SDS011;7175;51.978;5.330;2024-01-16T14:12:32;29.57;;;27.27;;
14187;SDS011;7175;51.978;5.330;2024-01-16T14:15:00;29.43;;;27.13;;
14187;SDS011;7175;51.978;5.330;2024-01-16T14:17:29;28.63;;;26.43;;
14187;SDS011;7175;51.978;5.330;2024-01-16T14:19:59;29.67;;;27.37;;
14187;SDS011;7175;51.978;5.330;2024-01-16T14:22:27;29.93;;;27.63;;
14187;SDS011;7175;51.978;5.330;2024-01-16T14:24:55;29.57;;;27.27;;
14187;SDS011;7175;51.978;5.330;2024-01-16T14:27:22;29.30;;;27.00;;
14187;SDS011;7175;51.978;5.330;2024-01-16T14:29:51;29.53;;;27.23;;
14187;SDS011;7175;51.978;5.330;2024-01-16T14:32:20;28.73;;;26.43;;
14187;SDS011;7175;51.978;5.330;2024-01-16T14:34:48;28.47;;;26.27;;
14187;SDS011;7175;51.978;5.330;2024-01-16T14:37:18;28.23;;;26.03;;
14187;SDS011;7175;51.978;5.330;2024-01-16T14:39:46;29.20;;;26.90;;
14187;SDS011;7175;51.978;5.330;2024-01-16T14:42:14;28.87;;;26.57;;
14187;SDS011;7175;51.978;5.330;2024-01-16T14:44:43;28.60;;;26.30;;
14187;SDS011;7175;51.978;5.330;2024-01-16T14:47:11;28.10;;;25.80;;